createdAt,value
2017-05-04T00:01:00.444Z,26.00
2017-05-04T00:02:01.214Z,24.00
2017-05-04T00:03:02.238Z,25.00
2017-05-04T00:04:03.010Z,24.00
2017-05-04T00:05:03.972Z,27.00
2017-05-04T00:06:04.742Z,20.00
2017-05-04T00:07:05.515Z,22.00
2017-05-04T00:08:06.539Z,22.00
2017-05-04T00:09:07.311Z,23.00
2017-05-04T00:10:08.083Z,22.00
2017-05-04T00:11:08.855Z,18.00
2017-05-04T00:12:09.628Z,22.00
2017-05-04T00:13:10.647Z,19.00
2017-05-04T00:14:11.417Z,18.00
2017-05-04T00:15:12.378Z,20.00
2017-05-04T00:16:13.148Z,20.00
2017-05-04T00:17:13.917Z,16.00
2017-05-04T00:18:14.943Z,17.00
2017-05-04T00:19:15.711Z,19.00
2017-05-04T00:20:16.480Z,18.00
2017-05-04T00:21:17.253Z,18.00
2017-05-04T00:22:18.026Z,19.00
2017-05-04T00:23:19.049Z,20.00
2017-05-04T00:24:19.817Z,21.00
2017-05-04T00:25:20.588Z,16.00
2017-05-04T00:26:21.358Z,18.00
2017-05-04T00:27:22.128Z,17.00
2017-05-04T00:28:23.151Z,16.00
2017-05-04T00:29:23.923Z,18.00
2017-05-04T00:30:24.694Z,16.00
2017-05-04T00:31:25.464Z,13.00
2017-05-04T00:32:26.234Z,17.00
2017-05-04T00:33:27.253Z,14.00
2017-05-04T00:34:28.026Z,17.00
2017-05-04T00:35:28.794Z,20.00
2017-05-04T00:36:29.863Z,17.00
2017-05-04T00:37:30.632Z,16.00
2017-05-04T00:38:31.399Z,16.00
2017-05-04T00:39:32.167Z,16.00
2017-05-04T00:40:32.934Z,14.00
2017-05-04T00:41:34.004Z,14.00
2017-05-04T00:42:34.774Z,15.00
2017-05-04T00:43:35.545Z,17.00
2017-05-04T00:44:36.320Z,14.00
2017-05-04T00:45:37.086Z,15.00
2017-05-04T00:46:38.106Z,14.00
2017-05-04T00:47:38.875Z,15.00
2017-05-04T00:48:39.643Z,13.00
2017-05-04T00:49:40.413Z,14.00
2017-05-04T00:50:41.182Z,14.00
2017-05-04T00:51:42.201Z,16.00
2017-05-04T00:52:42.971Z,14.00
2017-05-04T00:53:43.740Z,15.00
2017-05-04T00:54:44.509Z,12.00
2017-05-04T00:55:45.280Z,13.00
2017-05-04T00:56:46.302Z,12.00
2017-05-04T00:57:47.070Z,12.00
2017-05-04T00:58:47.838Z,14.00
2017-05-04T00:59:48.789Z,13.00
2017-05-04T01:00:49.561Z,14.00
2017-05-04T01:01:50.578Z,16.00
2017-05-04T01:02:51.347Z,13.00
2017-05-04T01:03:52.116Z,13.00
2017-05-04T01:04:52.888Z,12.00
2017-05-04T01:05:53.658Z,12.00
2017-05-04T01:06:54.725Z,13.00
2017-05-04T01:07:55.495Z,12.00
2017-05-04T01:08:56.264Z,11.00
2017-05-04T01:09:57.034Z,11.00
2017-05-04T01:10:57.804Z,12.00
2017-05-04T01:11:58.823Z,11.00
2017-05-04T01:12:59.594Z,12.00
2017-05-04T01:14:00.360Z,10.00
2017-05-04T01:15:01.132Z,11.00
2017-05-04T01:16:01.902Z,11.00
2017-05-04T01:17:02.918Z,11.00
2017-05-04T01:18:03.875Z,10.00
2017-05-04T01:19:04.641Z,9.00
2017-05-04T01:20:05.411Z,9.00
2017-05-04T01:21:06.175Z,9.00
2017-05-04T01:22:07.195Z,11.00
2017-05-04T01:23:07.962Z,12.00
2017-05-04T01:24:08.730Z,9.00
2017-05-04T01:25:09.495Z,8.00
2017-05-04T01:26:10.265Z,9.00
2017-05-04T01:27:11.281Z,9.00
2017-05-04T01:28:12.048Z,10.00
2017-05-04T01:29:12.818Z,9.00
2017-05-04T01:30:13.586Z,9.00
2017-05-04T01:31:14.353Z,9.00
2017-05-04T01:32:15.371Z,8.00
2017-05-04T01:33:16.138Z,10.00
2017-05-04T01:34:16.908Z,11.00
2017-05-04T01:35:17.674Z,9.00
2017-05-04T01:36:18.443Z,11.00
2017-05-04T01:37:19.513Z,8.00
2017-05-04T01:38:20.278Z,8.00
2017-05-04T01:39:21.045Z,9.00
2017-05-04T01:40:21.813Z,9.00
2017-05-04T01:41:22.580Z,8.00
2017-05-04T01:42:23.599Z,8.00
2017-05-04T01:43:24.368Z,9.00
2017-05-04T01:44:25.136Z,7.00
2017-05-04T01:45:25.902Z,8.00
2017-05-04T01:46:26.671Z,8.00
2017-05-04T01:47:27.875Z,10.00
2017-05-04T01:48:28.642Z,7.00
2017-05-04T01:49:29.409Z,7.00
2017-05-04T01:50:30.177Z,8.00
2017-05-04T01:51:30.945Z,9.00
2017-05-04T01:52:31.965Z,6.00
2017-05-04T01:53:32.732Z,9.00
2017-05-04T01:54:33.499Z,8.00
2017-05-04T01:55:34.271Z,9.00
2017-05-04T01:56:35.060Z,6.00
2017-05-04T01:57:36.053Z,8.00
2017-05-04T01:58:36.820Z,8.00
2017-05-04T01:59:37.588Z,6.00
2017-05-04T02:00:38.353Z,8.00
2017-05-04T02:01:39.122Z,7.00
2017-05-04T02:02:40.139Z,7.00
2017-05-04T02:03:40.906Z,6.00
2017-05-04T02:04:41.671Z,6.00
2017-05-04T02:05:42.437Z,7.00
2017-05-04T02:06:43.204Z,9.00
2017-05-04T02:07:44.223Z,8.00
2017-05-04T02:08:44.994Z,7.00
2017-05-04T02:09:45.758Z,7.00
2017-05-04T02:10:46.524Z,8.00
2017-05-04T02:11:47.294Z,7.00
2017-05-04T02:12:48.311Z,7.00
2017-05-04T02:13:49.076Z,7.00
2017-05-04T02:14:49.844Z,6.00
2017-05-04T02:15:50.614Z,7.00
2017-05-04T02:16:51.575Z,8.00
2017-05-04T02:17:52.588Z,8.00
2017-05-04T02:18:53.543Z,8.00
2017-05-04T02:19:54.315Z,7.00
2017-05-04T02:20:55.079Z,8.00
2017-05-04T02:21:55.849Z,7.00
2017-05-04T02:22:56.912Z,6.00
2017-05-04T02:23:57.678Z,6.00
2017-05-04T02:24:58.447Z,7.00
2017-05-04T02:25:59.210Z,8.00
2017-05-04T02:26:59.978Z,6.00
2017-05-04T02:28:00.995Z,6.00
2017-05-04T02:29:01.762Z,7.00
2017-05-04T02:30:02.529Z,7.00
2017-05-04T02:31:03.295Z,7.00
2017-05-04T02:32:04.061Z,6.00
2017-05-04T02:33:05.078Z,7.00
2017-05-04T02:34:05.844Z,7.00
2017-05-04T02:35:06.614Z,8.00
2017-05-04T02:36:07.381Z,6.00
2017-05-04T02:37:08.148Z,16.00
2017-05-04T02:38:09.163Z,6.00
2017-05-04T02:39:09.938Z,7.00
2017-05-04T02:40:10.704Z,7.00
2017-05-04T02:41:11.471Z,6.00
2017-05-04T02:42:12.235Z,7.00
2017-05-04T02:43:13.304Z,6.00
2017-05-04T02:44:14.073Z,6.00
2017-05-04T02:45:14.840Z,7.00
2017-05-04T02:46:15.611Z,7.00
2017-05-04T02:47:16.377Z,6.00
2017-05-04T02:48:17.445Z,8.00
2017-05-04T02:49:18.211Z,6.00
2017-05-04T02:50:18.976Z,7.00
2017-05-04T02:51:19.743Z,7.00
2017-05-04T02:52:20.527Z,7.00
2017-05-04T02:53:21.532Z,7.00
2017-05-04T02:54:22.298Z,7.00
2017-05-04T02:55:23.065Z,7.00
2017-05-04T02:56:23.834Z,6.00
2017-05-04T02:57:24.599Z,6.00
2017-05-04T02:58:25.614Z,6.00
2017-05-04T02:59:26.381Z,6.00
2017-05-04T03:00:27.151Z,9.00
2017-05-04T03:01:27.918Z,6.00
2017-05-04T03:02:28.686Z,8.00
2017-05-04T03:04:31.429Z,6.00
2017-05-04T03:05:32.197Z,7.00
2017-05-04T03:06:32.965Z,7.00
2017-05-04T03:07:33.732Z,6.00
2017-05-04T03:08:34.749Z,9.00
2017-05-04T03:09:35.516Z,7.00
2017-05-04T03:10:36.281Z,6.00
2017-05-04T03:11:37.050Z,8.00
2017-05-04T03:12:37.818Z,7.00
2017-05-04T03:13:38.885Z,7.00
2017-05-04T03:14:39.650Z,7.00
2017-05-04T03:15:40.419Z,8.00
2017-05-04T03:16:41.186Z,8.00
2017-05-04T03:17:41.952Z,7.00
2017-05-04T03:18:42.969Z,8.00
2017-05-04T03:19:43.737Z,7.00
2017-05-04T03:20:44.502Z,6.00
2017-05-04T03:21:45.265Z,8.00
2017-05-04T03:22:46.030Z,7.00
2017-05-04T03:23:47.047Z,7.00
2017-05-04T03:24:47.810Z,7.00
2017-05-04T03:25:48.578Z,8.00
2017-05-04T03:26:49.341Z,8.00
2017-05-04T03:27:50.109Z,7.00
2017-05-04T03:28:51.127Z,8.00
2017-05-04T03:29:51.891Z,6.00
2017-05-04T03:30:52.659Z,6.00
2017-05-04T03:31:53.421Z,5.00
2017-05-04T03:32:54.188Z,6.00
2017-05-04T03:33:55.207Z,7.00
2017-05-04T03:34:55.969Z,6.00
2017-05-04T03:35:56.734Z,8.00
2017-05-04T03:36:57.502Z,9.00
2017-05-04T03:37:58.270Z,7.00
2017-05-04T03:38:59.286Z,8.00
2017-05-04T03:40:00.053Z,7.00
2017-05-04T03:41:00.818Z,7.00
2017-05-04T03:42:01.585Z,7.00
2017-05-04T03:43:02.380Z,7.00
2017-05-04T03:44:03.418Z,7.00
2017-05-04T03:45:04.187Z,7.00
2017-05-04T03:46:04.953Z,7.00
2017-05-04T03:47:05.717Z,6.00
2017-05-04T03:48:06.483Z,8.00
2017-05-04T03:49:07.550Z,8.00
2017-05-04T03:50:08.315Z,8.00
2017-05-04T03:51:09.079Z,7.00
2017-05-04T03:52:09.845Z,7.00
2017-05-04T03:53:10.609Z,7.00
2017-05-04T03:54:11.628Z,8.00
2017-05-04T03:55:12.393Z,7.00
2017-05-04T03:56:13.160Z,7.00
2017-05-04T03:57:13.928Z,6.00
2017-05-04T03:58:14.694Z,7.00
2017-05-04T03:59:15.713Z,7.00
2017-05-04T04:00:16.480Z,7.00
2017-05-04T04:01:17.246Z,6.00
2017-05-04T04:02:18.012Z,6.00
2017-05-04T04:03:18.780Z,6.00
2017-05-04T04:04:19.799Z,7.00
2017-05-04T04:05:20.564Z,5.00
2017-05-04T04:06:21.331Z,7.00
2017-05-04T04:07:22.100Z,7.00
2017-05-04T04:08:22.868Z,7.00
2017-05-04T04:09:23.888Z,10.00
2017-05-04T04:10:24.655Z,6.00
2017-05-04T04:11:25.424Z,7.00
2017-05-04T04:12:26.195Z,7.00
2017-05-04T04:13:26.964Z,6.00
2017-05-04T04:14:27.984Z,8.00
2017-05-04T04:15:28.752Z,9.00
2017-05-04T04:16:29.522Z,6.00
2017-05-04T04:17:30.293Z,7.00
2017-05-04T04:18:31.062Z,8.00
2017-05-04T04:19:32.078Z,7.00
2017-05-04T04:20:32.851Z,7.00
2017-05-04T04:21:33.618Z,7.00
2017-05-04T04:22:34.390Z,7.00
2017-05-04T04:23:35.156Z,7.00
2017-05-04T04:24:36.176Z,8.00
2017-05-04T04:25:36.947Z,7.00
2017-05-04T04:26:37.714Z,7.00
2017-05-04T04:27:38.483Z,7.00
2017-05-04T04:28:39.252Z,7.00
2017-05-04T04:29:40.271Z,5.00
2017-05-04T04:30:41.038Z,8.00
2017-05-04T04:31:41.809Z,7.00
2017-05-04T04:32:42.579Z,7.00
2017-05-04T04:33:43.347Z,7.00
2017-05-04T04:34:44.364Z,8.00
2017-05-04T04:35:45.138Z,8.00
2017-05-04T04:36:45.908Z,7.00
2017-05-04T04:37:46.680Z,7.00
2017-05-04T04:38:47.451Z,7.00
2017-05-04T04:39:48.523Z,7.00
2017-05-04T04:40:49.299Z,7.00
2017-05-04T04:41:50.068Z,7.00
2017-05-04T04:42:50.837Z,7.00
2017-05-04T04:43:51.606Z,6.00
2017-05-04T04:44:52.627Z,6.00
2017-05-04T04:45:53.399Z,7.00
2017-05-04T04:46:54.169Z,6.00
2017-05-04T04:47:54.938Z,7.00
2017-05-04T04:48:55.712Z,7.00
2017-05-04T04:49:56.778Z,7.00
2017-05-04T04:50:57.548Z,7.00
2017-05-04T04:51:58.324Z,7.00
2017-05-04T04:52:59.090Z,8.00
2017-05-04T04:53:59.863Z,10.00
2017-05-04T04:55:00.882Z,7.00
2017-05-04T04:56:01.656Z,7.00
2017-05-04T04:57:02.427Z,6.00
2017-05-04T04:58:03.197Z,7.00
2017-05-04T04:59:03.964Z,7.00
2017-05-04T05:00:04.984Z,7.00
2017-05-04T05:01:05.753Z,7.00
2017-05-04T05:02:06.523Z,6.00
2017-05-04T05:03:07.296Z,8.00
2017-05-04T05:04:08.066Z,7.00
2017-05-04T05:05:09.088Z,6.00
2017-05-04T05:06:09.859Z,7.00
2017-05-04T05:07:10.631Z,6.00
2017-05-04T05:08:11.402Z,7.00
2017-05-04T05:09:12.172Z,7.00
2017-05-04T05:10:13.243Z,7.00
2017-05-04T05:11:14.012Z,6.00
2017-05-04T05:12:14.783Z,6.00
2017-05-04T05:13:15.553Z,8.00
2017-05-04T05:14:16.322Z,7.00
2017-05-04T05:15:17.393Z,8.00
2017-05-04T05:16:18.163Z,7.00
2017-05-04T05:17:18.934Z,6.00
2017-05-04T05:18:19.705Z,6.00
2017-05-04T05:19:20.477Z,6.00
2017-05-04T05:20:21.548Z,7.00
2017-05-04T05:21:22.322Z,7.00
2017-05-04T05:22:23.092Z,7.00
2017-05-04T05:23:23.864Z,7.00
2017-05-04T05:24:24.637Z,6.00
2017-05-04T05:25:25.661Z,8.00
2017-05-04T05:26:26.434Z,7.00
2017-05-04T05:27:27.209Z,6.00
2017-05-04T05:28:27.981Z,7.00
2017-05-04T05:29:28.754Z,5.00
2017-05-04T05:30:29.777Z,6.00
2017-05-04T05:31:30.559Z,6.00
2017-05-04T05:32:31.320Z,6.00
2017-05-04T05:33:32.096Z,7.00
2017-05-04T05:34:32.872Z,10.00
2017-05-04T05:35:33.948Z,6.00
2017-05-04T05:36:34.724Z,7.00
2017-05-04T05:37:35.497Z,7.00
2017-05-04T05:38:36.273Z,9.00
2017-05-04T05:39:37.045Z,6.00
2017-05-04T05:40:38.070Z,9.00
2017-05-04T05:41:38.842Z,6.00
2017-05-04T05:42:39.620Z,6.00
2017-05-04T05:43:40.398Z,6.00
2017-05-04T05:44:41.169Z,8.00
2017-05-04T05:45:42.190Z,7.00
2017-05-04T05:46:42.966Z,8.00
2017-05-04T05:47:43.740Z,8.00
2017-05-04T05:48:44.512Z,6.00
2017-05-04T05:49:45.288Z,6.00
2017-05-04T05:50:46.310Z,8.00
2017-05-04T05:51:47.084Z,7.00
2017-05-04T05:52:47.861Z,6.00
2017-05-04T05:53:48.636Z,7.00
2017-05-04T05:54:49.411Z,5.00
2017-05-04T05:55:50.436Z,7.00
2017-05-04T05:56:51.209Z,6.00
2017-05-04T05:57:51.982Z,7.00
2017-05-04T05:58:52.754Z,7.00
2017-05-04T05:59:53.531Z,6.00
2017-05-04T06:00:54.553Z,6.00
2017-05-04T06:01:55.334Z,6.00
2017-05-04T06:02:56.103Z,7.00
2017-05-04T06:03:56.878Z,6.00
2017-05-04T06:04:57.654Z,8.00
2017-05-04T06:05:58.677Z,7.00
2017-05-04T06:06:59.451Z,6.00
2017-05-04T06:08:00.228Z,6.00
2017-05-04T06:09:00.999Z,5.00
2017-05-04T06:10:01.774Z,6.00
2017-05-04T06:11:02.797Z,6.00
2017-05-04T06:12:03.575Z,10.00
2017-05-04T06:13:04.349Z,5.00
2017-05-04T06:14:05.125Z,7.00
2017-05-04T06:15:05.900Z,8.00
2017-05-04T06:16:06.925Z,6.00
2017-05-04T06:17:07.696Z,7.00
2017-05-04T06:18:08.476Z,6.00
2017-05-04T06:19:09.253Z,6.00
2017-05-04T06:20:10.022Z,6.00
2017-05-04T06:21:11.047Z,8.00
2017-05-04T06:22:11.823Z,9.00
2017-05-04T06:23:12.597Z,5.00
2017-05-04T06:24:13.369Z,5.00
2017-05-04T06:25:14.145Z,5.00
2017-05-04T06:26:15.172Z,6.00
2017-05-04T06:27:15.950Z,9.00
2017-05-04T06:28:16.721Z,6.00
2017-05-04T06:29:17.497Z,6.00
2017-05-04T06:30:18.461Z,6.00
2017-05-04T06:31:19.486Z,6.00
2017-05-04T06:32:20.259Z,7.00
2017-05-04T06:33:21.034Z,5.00
2017-05-04T06:34:21.807Z,7.00
2017-05-04T06:35:22.582Z,6.00
2017-05-04T06:36:23.608Z,7.00
2017-05-04T06:37:24.385Z,5.00
2017-05-04T06:38:25.158Z,5.00
2017-05-04T06:39:25.932Z,6.00
2017-05-04T06:40:26.710Z,9.00
2017-05-04T06:41:27.736Z,6.00
2017-05-04T06:42:28.509Z,7.00
2017-05-04T06:43:29.282Z,5.00
2017-05-04T06:44:30.057Z,6.00
2017-05-04T06:45:30.832Z,7.00
2017-05-04T06:46:31.856Z,6.00
2017-05-04T06:47:32.630Z,9.00
2017-05-04T06:48:33.404Z,9.00
2017-05-04T06:49:34.181Z,7.00
2017-05-04T06:50:34.957Z,7.00
2017-05-04T06:51:36.034Z,7.00
2017-05-04T06:52:36.813Z,6.00
2017-05-04T06:53:37.586Z,8.00
2017-05-04T06:54:38.362Z,7.00
2017-05-04T06:55:39.137Z,6.00
2017-05-04T06:56:40.162Z,7.00
2017-05-04T06:57:40.937Z,7.00
2017-05-04T06:58:41.713Z,6.00
2017-05-04T06:59:42.490Z,7.00
2017-05-04T07:00:43.266Z,8.00
2017-05-04T07:01:44.296Z,6.00
2017-05-04T07:02:45.071Z,6.00
2017-05-04T07:03:45.845Z,5.00
2017-05-04T07:04:46.619Z,7.00
2017-05-04T07:05:47.396Z,7.00
2017-05-04T07:06:48.421Z,6.00
2017-05-04T07:07:49.199Z,7.00
2017-05-04T07:08:49.975Z,6.00
2017-05-04T07:09:50.747Z,7.00
2017-05-04T07:10:51.524Z,7.00
2017-05-04T07:11:52.600Z,5.00
2017-05-04T07:12:53.376Z,7.00
2017-05-04T07:13:54.155Z,7.00
2017-05-04T07:14:54.929Z,6.00
2017-05-04T07:15:55.707Z,10.00
2017-05-04T07:16:56.782Z,10.00
2017-05-04T07:17:57.560Z,8.00
2017-05-04T07:18:58.338Z,10.00
2017-05-04T07:19:59.116Z,6.00
2017-05-04T07:20:59.896Z,8.00
2017-05-04T07:22:00.925Z,6.00
2017-05-04T07:23:01.702Z,7.00
2017-05-04T07:24:02.500Z,8.00
2017-05-04T07:25:03.259Z,6.00
2017-05-04T07:26:04.032Z,7.00
2017-05-04T07:27:05.058Z,6.00
2017-05-04T07:28:05.838Z,6.00
2017-05-04T07:29:06.617Z,8.00
2017-05-04T07:30:07.585Z,7.00
2017-05-04T07:31:08.361Z,7.00
2017-05-04T07:32:09.390Z,7.00
2017-05-04T07:33:10.165Z,6.00
2017-05-04T07:34:10.944Z,5.00
2017-05-04T07:35:11.723Z,7.00
2017-05-04T07:36:12.501Z,5.00
2017-05-04T07:37:13.529Z,9.00
2017-05-04T07:38:14.307Z,8.00
2017-05-04T07:39:15.087Z,8.00
2017-05-04T07:40:15.865Z,6.00
2017-05-04T07:41:16.645Z,6.00
2017-05-04T07:42:17.859Z,9.00
2017-05-04T07:43:18.635Z,7.00
2017-05-04T07:44:19.411Z,6.00
2017-05-04T07:45:20.189Z,6.00
2017-05-04T07:46:20.972Z,6.00
2017-05-04T07:47:21.997Z,6.00
2017-05-04T07:48:22.778Z,7.00
2017-05-04T07:49:23.557Z,7.00
2017-05-04T07:50:24.337Z,6.00
2017-05-04T07:51:25.116Z,7.00
2017-05-04T07:52:26.194Z,6.00
2017-05-04T07:53:26.973Z,6.00
2017-05-04T07:54:27.754Z,7.00
2017-05-04T07:55:28.535Z,7.00
2017-05-04T07:56:29.502Z,7.00
2017-05-04T07:57:30.536Z,8.00
2017-05-04T07:58:31.314Z,7.00
2017-05-04T07:59:32.093Z,8.00
2017-05-04T08:00:32.869Z,7.00
2017-05-04T08:01:33.652Z,8.00
2017-05-04T08:02:34.679Z,6.00
2017-05-04T08:03:35.461Z,6.00
2017-05-04T08:04:36.242Z,7.00
2017-05-04T08:05:37.025Z,8.00
2017-05-04T08:06:37.808Z,8.00
2017-05-04T08:07:38.889Z,6.00
2017-05-04T08:08:39.675Z,9.00
2017-05-04T08:09:40.459Z,8.00
2017-05-04T08:10:41.239Z,8.00
2017-05-04T08:11:42.023Z,7.00
2017-05-04T08:12:43.057Z,8.00
2017-05-04T08:13:43.843Z,7.00
2017-05-04T08:14:44.621Z,8.00
2017-05-04T08:15:45.410Z,8.00
2017-05-04T08:16:46.188Z,8.00
2017-05-04T08:17:47.273Z,6.00
2017-05-04T08:18:48.055Z,8.00
2017-05-04T08:19:48.841Z,6.00
2017-05-04T08:20:49.628Z,9.00
2017-05-04T08:21:50.411Z,9.00
2017-05-04T08:22:51.497Z,7.00
2017-05-04T08:23:52.278Z,8.00
2017-05-04T08:24:53.063Z,9.00
2017-05-04T08:25:53.850Z,7.00
2017-05-04T08:26:54.636Z,8.00
2017-05-04T08:27:55.672Z,7.00
2017-05-04T08:28:56.460Z,8.00
2017-05-04T08:29:57.253Z,8.00
2017-05-04T08:30:58.044Z,8.00
2017-05-04T08:31:58.831Z,9.00
2017-05-04T08:32:59.874Z,9.00
2017-05-04T08:34:00.666Z,9.00
2017-05-04T08:35:01.455Z,9.00
2017-05-04T08:36:02.245Z,9.00
2017-05-04T08:37:03.032Z,8.00
2017-05-04T08:38:04.072Z,8.00
2017-05-04T08:39:04.863Z,8.00
2017-05-04T08:40:05.648Z,8.00
2017-05-04T08:41:06.435Z,8.00
2017-05-04T08:42:07.224Z,8.00
2017-05-04T08:43:08.262Z,9.00
2017-05-04T08:44:09.050Z,7.00
2017-05-04T08:45:09.832Z,9.00
2017-05-04T08:46:10.618Z,8.00
2017-05-04T08:47:11.404Z,9.00
2017-05-04T08:48:12.441Z,9.00
2017-05-04T08:49:13.230Z,10.00
2017-05-04T08:50:14.008Z,9.00
2017-05-04T08:51:14.793Z,9.00
2017-05-04T08:52:15.577Z,8.00
2017-05-04T08:53:16.708Z,12.00
2017-05-04T08:54:17.480Z,8.00
2017-05-04T08:55:18.270Z,10.00
2017-05-04T08:56:19.048Z,9.00
2017-05-04T08:57:19.832Z,11.00
2017-05-04T08:58:20.866Z,9.00
2017-05-04T08:59:21.684Z,9.00
2017-05-04T09:00:22.485Z,8.00
2017-05-04T09:01:23.274Z,10.00
2017-05-04T09:02:24.058Z,8.00
2017-05-04T09:03:25.096Z,10.00
2017-05-04T09:04:25.949Z,8.00
2017-05-04T09:05:26.732Z,11.00
2017-05-04T09:06:27.518Z,9.00
2017-05-04T09:07:28.303Z,10.00
2017-05-04T09:08:29.337Z,8.00
2017-05-04T09:09:30.117Z,11.00
2017-05-04T09:10:30.909Z,9.00
2017-05-04T09:11:31.691Z,9.00
2017-05-04T09:12:32.465Z,9.00
2017-05-04T09:13:33.553Z,10.00
2017-05-04T09:14:34.337Z,11.00
2017-05-04T09:15:35.164Z,9.00
2017-05-04T09:16:35.950Z,10.00
2017-05-04T09:17:36.734Z,10.00
2017-05-04T09:18:37.818Z,10.00
2017-05-04T09:19:38.615Z,9.00
2017-05-04T09:20:39.400Z,10.00
2017-05-04T09:21:40.185Z,11.00
2017-05-04T09:22:40.977Z,9.00
2017-05-04T09:23:42.017Z,12.00
2017-05-04T09:24:42.805Z,9.00
2017-05-04T09:25:43.594Z,9.00
2017-05-04T09:26:44.384Z,8.00
2017-05-04T09:27:45.173Z,9.00
2017-05-04T09:28:46.265Z,11.00
2017-05-04T09:29:47.057Z,9.00
2017-05-04T09:30:47.846Z,10.00
2017-05-04T09:31:48.638Z,11.00
2017-05-04T09:32:49.448Z,10.00
2017-05-04T09:33:50.465Z,10.00
2017-05-04T09:34:51.253Z,10.00
2017-05-04T09:35:52.040Z,11.00
2017-05-04T09:36:52.827Z,10.00
2017-05-04T09:37:53.611Z,10.00
2017-05-04T09:38:54.650Z,12.00
2017-05-04T09:39:55.439Z,11.00
2017-05-04T09:40:56.228Z,12.00
2017-05-04T09:41:57.015Z,12.00
2017-05-04T09:42:57.801Z,12.00
2017-05-04T09:43:58.839Z,12.00
2017-05-04T09:44:59.630Z,11.00
2017-05-04T09:46:00.421Z,10.00
2017-05-04T09:47:01.211Z,11.00
2017-05-04T09:48:02.001Z,10.00
2017-05-04T09:49:03.041Z,12.00
2017-05-04T09:50:03.829Z,13.00
2017-05-04T09:51:04.619Z,13.00
2017-05-04T09:52:05.409Z,12.00
2017-05-04T09:53:06.200Z,12.00
2017-05-04T09:54:07.241Z,12.00
2017-05-04T09:55:08.029Z,11.00
2017-05-04T09:56:08.820Z,12.00
2017-05-04T09:57:09.610Z,12.00
2017-05-04T09:58:10.399Z,10.00
2017-05-04T09:59:11.677Z,10.00
2017-05-04T10:00:12.463Z,15.00
2017-05-04T10:01:13.248Z,13.00
2017-05-04T10:02:14.036Z,12.00
2017-05-04T10:03:14.823Z,13.00
2017-05-04T10:04:15.908Z,13.00
2017-05-04T10:05:16.694Z,11.00
2017-05-04T10:06:17.476Z,12.00
2017-05-04T10:07:18.259Z,9.00
2017-05-04T10:08:19.045Z,12.00
2017-05-04T10:09:20.079Z,12.00
2017-05-04T10:10:20.862Z,14.00
2017-05-04T10:11:21.645Z,11.00
2017-05-04T10:12:22.429Z,11.00
2017-05-04T10:13:23.211Z,11.00
2017-05-04T10:14:24.292Z,11.00
2017-05-04T10:15:25.076Z,9.00
2017-05-04T10:16:25.859Z,11.00
2017-05-04T10:17:26.643Z,12.00
2017-05-04T10:18:27.427Z,11.00
2017-05-04T10:19:28.457Z,9.00
2017-05-04T10:20:29.242Z,10.00
2017-05-04T10:21:30.032Z,10.00
2017-05-04T10:22:30.811Z,9.00
2017-05-04T10:23:31.592Z,11.00
2017-05-04T10:24:32.625Z,10.00
2017-05-04T10:25:33.408Z,10.00
2017-05-04T10:26:34.376Z,10.00
2017-05-04T10:27:35.155Z,11.00
2017-05-04T10:28:35.937Z,10.00
2017-05-04T10:29:36.971Z,10.00
2017-05-04T10:30:37.754Z,11.00
2017-05-04T10:31:38.534Z,9.00
2017-05-04T10:32:39.316Z,10.00
2017-05-04T10:33:40.098Z,9.00
2017-05-04T10:34:41.127Z,11.00
2017-05-04T10:35:41.909Z,10.00
2017-05-04T10:36:42.690Z,10.00
2017-05-04T10:37:43.476Z,10.00
2017-05-04T10:38:44.262Z,9.00
2017-05-04T10:39:45.296Z,11.00
2017-05-04T10:40:46.082Z,9.00
2017-05-04T10:41:46.869Z,10.00
2017-05-04T10:42:47.650Z,9.00
2017-05-04T10:43:48.438Z,11.00
2017-05-04T10:44:49.519Z,8.00
2017-05-04T10:45:50.302Z,8.00
2017-05-04T10:46:51.086Z,7.00
2017-05-04T10:47:51.866Z,8.00
2017-05-04T10:48:52.649Z,8.00
2017-05-04T10:49:53.682Z,7.00
2017-05-04T10:50:54.465Z,9.00
2017-05-04T10:51:55.247Z,10.00
2017-05-04T10:52:56.031Z,9.00
2017-05-04T10:53:56.812Z,8.00
2017-05-04T10:54:57.841Z,8.00
2017-05-04T10:55:58.621Z,8.00
2017-05-04T10:56:59.404Z,8.00
2017-05-04T10:58:00.183Z,10.00
2017-05-04T10:59:00.966Z,9.00
2017-05-04T11:00:01.997Z,11.00
2017-05-04T11:01:02.775Z,8.00
2017-05-04T11:02:03.555Z,9.00
2017-05-04T11:03:04.339Z,9.00
2017-05-04T11:04:05.116Z,8.00
2017-05-04T11:05:06.217Z,8.00
2017-05-04T11:06:06.974Z,8.00
2017-05-04T11:07:07.750Z,8.00
2017-05-04T11:08:08.528Z,9.00
2017-05-04T11:09:09.304Z,8.00
2017-05-04T11:10:10.335Z,9.00
2017-05-04T11:11:11.114Z,9.00
2017-05-04T11:12:11.896Z,9.00
2017-05-04T11:13:12.674Z,9.00
2017-05-04T11:14:13.456Z,9.00
2017-05-04T11:15:14.489Z,10.00
2017-05-04T11:16:15.269Z,9.00
2017-05-04T11:17:16.050Z,9.00
2017-05-04T11:18:16.832Z,9.00
2017-05-04T11:19:17.612Z,8.00
2017-05-04T11:20:18.642Z,9.00
2017-05-04T11:21:19.421Z,8.00
2017-05-04T11:22:20.202Z,9.00
2017-05-04T11:23:20.980Z,9.00
2017-05-04T11:24:21.760Z,10.00
2017-05-04T11:25:22.790Z,10.00
2017-05-04T11:26:23.590Z,9.00
2017-05-04T11:27:24.351Z,10.00
2017-05-04T11:28:25.132Z,11.00
2017-05-04T11:29:25.913Z,9.00
2017-05-04T11:30:26.940Z,8.00
2017-05-04T11:31:27.717Z,9.00
2017-05-04T11:32:28.497Z,9.00
2017-05-04T11:33:29.284Z,9.00
2017-05-04T11:34:30.056Z,8.00
2017-05-04T11:35:31.083Z,8.00
2017-05-04T11:36:31.865Z,11.00
2017-05-04T11:37:32.648Z,9.00
2017-05-04T11:38:33.422Z,8.00
2017-05-04T11:39:34.200Z,8.00
2017-05-04T11:40:35.278Z,8.00
2017-05-04T11:41:36.061Z,9.00
2017-05-04T11:42:36.838Z,8.00
2017-05-04T11:43:37.622Z,9.00
2017-05-04T11:44:38.399Z,7.00
2017-05-04T11:45:39.431Z,9.00
2017-05-04T11:46:40.212Z,9.00
2017-05-04T11:47:40.991Z,8.00
2017-05-04T11:48:41.771Z,10.00
2017-05-04T11:49:42.549Z,8.00
2017-05-04T11:50:43.576Z,8.00
2017-05-04T11:51:44.356Z,8.00
2017-05-04T11:52:45.137Z,10.00
2017-05-04T11:53:45.917Z,8.00
2017-05-04T11:54:46.697Z,9.00
2017-05-04T11:55:47.776Z,8.00
2017-05-04T11:56:48.553Z,9.00
2017-05-04T11:57:49.330Z,7.00
2017-05-04T11:58:50.110Z,9.00
2017-05-04T11:59:50.886Z,9.00
2017-05-04T12:00:51.918Z,7.00
2017-05-04T12:01:52.692Z,8.00
2017-05-04T12:02:53.471Z,8.00
2017-05-04T12:03:54.249Z,6.00
2017-05-04T12:04:55.029Z,7.00
2017-05-04T12:05:56.057Z,8.00
2017-05-04T12:06:56.834Z,8.00
2017-05-04T12:07:57.610Z,7.00
2017-05-04T12:08:58.387Z,7.00
2017-05-04T12:09:59.165Z,8.00
2017-05-04T12:11:00.243Z,8.00
2017-05-04T12:12:01.018Z,7.00
2017-05-04T12:13:01.795Z,7.00
2017-05-04T12:14:02.572Z,9.00
2017-05-04T12:15:03.350Z,8.00
2017-05-04T12:16:04.378Z,8.00
2017-05-04T12:17:05.153Z,9.00
2017-05-04T12:18:05.930Z,10.00
2017-05-04T12:19:06.706Z,8.00
2017-05-04T12:20:07.484Z,10.00
2017-05-04T12:21:08.515Z,9.00
2017-05-04T12:22:09.291Z,8.00
2017-05-04T12:23:10.067Z,9.00
2017-05-04T12:24:10.844Z,8.00
2017-05-04T12:25:11.622Z,7.00
2017-05-04T12:26:12.646Z,10.00
2017-05-04T12:27:13.609Z,7.00
2017-05-04T12:28:14.387Z,6.00
2017-05-04T12:29:15.165Z,7.00
2017-05-04T12:30:15.942Z,8.00
2017-05-04T12:31:17.016Z,7.00
2017-05-04T12:32:17.794Z,8.00
2017-05-04T12:33:18.574Z,9.00
2017-05-04T12:34:19.352Z,8.00
2017-05-04T12:35:20.128Z,8.00
2017-05-04T12:36:21.159Z,10.00
2017-05-04T12:37:21.935Z,9.00
2017-05-04T12:38:22.712Z,10.00
2017-05-04T12:39:23.490Z,9.00
2017-05-04T12:40:24.456Z,7.00
2017-05-04T12:41:25.482Z,8.00
2017-05-04T12:42:26.261Z,9.00
2017-05-04T12:43:27.038Z,9.00
2017-05-04T12:44:27.817Z,8.00
2017-05-04T12:45:28.596Z,8.00
2017-05-04T12:46:29.622Z,9.00
2017-05-04T12:47:30.399Z,9.00
2017-05-04T12:48:31.175Z,11.00
2017-05-04T12:49:31.952Z,9.00
2017-05-04T12:50:32.728Z,9.00
2017-05-04T12:51:33.756Z,9.00
2017-05-04T12:52:34.532Z,9.00
2017-05-04T12:53:35.311Z,9.00
2017-05-04T12:54:36.094Z,8.00
2017-05-04T12:55:36.867Z,9.00
2017-05-04T12:56:37.892Z,7.00
2017-05-04T12:57:38.671Z,8.00
2017-05-04T12:58:39.449Z,10.00
2017-05-04T12:59:40.409Z,9.00
2017-05-04T13:00:41.183Z,8.00
2017-05-04T13:01:42.211Z,8.00
2017-05-04T13:02:43.188Z,8.00
2017-05-04T13:03:43.969Z,10.00
2017-05-04T13:04:44.746Z,11.00
2017-05-04T13:05:45.523Z,9.00
2017-05-04T13:06:46.546Z,9.00
2017-05-04T13:07:47.323Z,9.00
2017-05-04T13:08:48.102Z,10.00
2017-05-04T13:09:48.883Z,8.00
2017-05-04T13:10:49.658Z,8.00
2017-05-04T13:11:50.687Z,8.00
2017-05-04T13:12:51.462Z,9.00
2017-05-04T13:13:52.238Z,9.00
2017-05-04T13:14:53.017Z,9.00
2017-05-04T13:15:53.794Z,9.00
2017-05-04T13:16:54.823Z,9.00
2017-05-04T13:17:55.786Z,9.00
2017-05-04T13:18:56.562Z,8.00
2017-05-04T13:19:57.339Z,8.00
2017-05-04T13:20:58.118Z,9.00
2017-05-04T13:21:59.147Z,10.00
2017-05-04T13:22:59.925Z,10.00
2017-05-04T13:24:00.699Z,8.00